Time;durP1;ratioP1;P1;durP2;ratioP2;P2;SDS_P1;SDS_P2;PMS_P1;PMS_P2;Temp;Humidity;BMP_temperature;BMP_pressure;BME280_temperature;BME280_humidity;BME280_pressure;Samples;Min_cycle;Max_cycle;Signal;HPM_P1;HPM_P2
2021/09/12 00:00:11;;;;;;;;;;;;;;;;;;5112582;28;20294;-75
2021/09/12 00:02:38;;;;;;;;;;;;;;;;;;5112817;28;19931;-75
2021/09/12 00:05:04;;;;;;;;;;;;;;;;;;5113130;28;19930;-76
2021/09/12 00:07:30;;;;;;;;;;;;;;;;;;5112492;28;20416;-75
2021/09/12 00:09:57;;;;;;;;;;;;;;;;;;5112738;28;19931;-76
2021/09/12 00:12:23;;;;;;;;;;;;;;;;;;5112779;28;19934;-75
2021/09/12 00:14:49;;;;;;;;;;;;;;;;;;5112767;28;19924;-75
2021/09/12 00:17:15;;;;;;;;;;;;;;;;;;5112382;28;19924;-75
2021/09/12 00:19:42;;;;;;;;;;;;;;;;;;5112840;28;19931;-76
2021/09/12 00:22:08;;;;;;;;;;;;;;;;;;5112384;28;20405;-75
2021/09/12 00:24:34;;;;;;;;;;;;;;;;;;5112473;28;19931;-75
2021/09/12 00:27:01;;;;;;;;;;;;;;;;;;5112987;28;19930;-75
2021/09/12 00:29:27;;;;;;;;;;;;;;;;;;5112275;28;19941;-75
2021/09/12 00:31:53;;;;;;;;;;;;;;;;;;5112379;28;19935;-75
2021/09/12 00:34:20;;;;;;;;;;;;;;;;;;5112675;28;19923;-75
2021/09/12 00:36:46;;;;;;;;;;;;;;;;;;5116544;28;20385;-75
2021/09/12 00:39:12;;;;;;;;;;;;;;;;;;5116599;28;19997;-75
2021/09/12 00:41:38;;;;;;;;;;;;;;;;;;5116626;28;19947;-75
2021/09/12 00:44:05;;;;;;;;;;;;;;;;;;5116416;28;19930;-75
2021/09/12 00:46:31;;;;;;;;;;;;;;;;;;5116699;28;19923;-75
2021/09/12 00:48:57;;;;;;;;;;;;;;;;;;5116319;28;20382;-75
2021/09/12 00:51:24;;;;;;;;;;;;;;;;;;5115952;28;19928;-75
2021/09/12 00:53:50;;;;;;;;;;;;;;;;;;5116594;28;20014;-75
2021/09/12 00:56:16;;;;;;;;;;;;;;;;;;5116066;28;19947;-75
2021/09/12 00:58:42;;;;;;;;;;;;;;;;;;5116127;28;19930;-75
2021/09/12 01:01:09;;;;;;;;;;;;;;;;;;5116150;28;19924;-75
2021/09/12 01:03:35;;;;;;;;;;;;;;;;;;5115945;28;20321;-75
2021/09/12 01:06:01;;;;;;;;;;;;;;;;;;5115953;28;19924;-75
2021/09/12 01:08:28;;;;;;;;;;;;;;;;;;5115912;28;19928;-75
2021/09/12 01:10:54;;;;;;;;;;;;;;;;;;5116198;28;19934;-75
2021/09/12 01:13:20;;;;;;;;;;;;;;;;;;5115481;28;19924;-75
2021/09/12 01:15:48;;;;;;;;;;;;;;;;;;5116071;28;19924;-75
2021/09/12 01:18:14;;;;;;;;;;;;;;;;;;5115454;28;19927;-75
2021/09/12 01:20:40;;;;;;;;;;;;;;;;;;5115871;28;19930;-75
2021/09/12 01:23:07;;;;;;;;;;;;;;;;;;5115957;28;19923;-75
2021/09/12 01:25:33;;;;;;;;;;;;;;;;;;5115302;28;19928;-75
2021/09/12 01:28:00;;;;;;;;;;;;;;;;;;5115784;28;19931;-75
2021/09/12 01:30:26;;;;;;;;;;;;;;;;;;5115575;28;19924;-75
2021/09/12 01:32:52;;;;;;;;;;;;;;;;;;5115271;28;19931;-75
2021/09/12 01:35:19;;;;;;;;;;;;;;;;;;5115469;28;19930;-76
2021/09/12 01:37:45;;;;;;;;;;;;;;;;;;5115676;28;20334;-75
2021/09/12 01:40:11;;;;;;;;;;;;;;;;;;5115143;28;19930;-76
2021/09/12 01:42:38;;;;;;;;;;;;;;;;;;5115599;28;19924;-75
2021/09/12 01:45:04;;;;;;;;;;;;;;;;;;5115166;28;20411;-75
2021/09/12 01:47:30;;;;;;;;;;;;;;;;;;5113803;28;19923;-75
2021/09/12 01:49:56;;;;;;;;;;;;;;;;;;5115493;28;19938;-75
2021/09/12 01:52:23;;;;;;;;;;;;;;;;;;5114750;28;20290;-75
2021/09/12 01:54:49;;;;;;;;;;;;;;;;;;5114972;28;19935;-75
2021/09/12 01:57:15;;;;;;;;;;;;;;;;;;5115057;28;19945;-75
2021/09/12 01:59:42;;;;;;;;;;;;;;;;;;5115001;28;19924;-75
2021/09/12 02:02:08;;;;;;;;;;;;;;;;;;5114684;28;19930;-76
2021/09/12 02:04:34;;;;;;;;;;;;;;;;;;5115060;28;19928;-75
2021/09/12 02:07:00;;;;;;;;;;;;;;;;;;5114801;28;20403;-75
2021/09/12 02:09:27;;;;;;;;;;;;;;;;;;5114522;28;19931;-75
2021/09/12 02:11:53;;;;;;;;;;;;;;;;;;5114719;28;19923;-76
2021/09/12 02:14:20;;;;;;;;;;;;;;;;;;5114418;28;19930;-75
2021/09/12 02:16:46;;;;;;;;;;;;;;;;;;5114756;28;19931;-76
2021/09/12 02:19:12;;;;;;;;;;;;;;;;;;5114363;28;20270;-76
2021/09/12 02:21:39;;;;;;;;;;;;;;;;;;5114518;28;19924;-75
2021/09/12 02:24:05;;;;;;;;;;;;;;;;;;5114609;28;19928;-76
2021/09/12 02:26:31;;;;;;;;;;;;;;;;;;5113972;28;20374;-76
2021/09/12 02:28:57;;;;;;;;;;;;;;;;;;5114353;28;19924;-75
2021/09/12 02:31:25;;;;;;;;;;;;;;;;;;5114300;28;19930;-75
2021/09/12 02:33:51;;;;;;;;;;;;;;;;;;5114168;28;19962;-76
2021/09/12 02:36:17;;;;;;;;;;;;;;;;;;5114183;28;19932;-75
2021/09/12 02:38:43;;;;;;;;;;;;;;;;;;5114183;28;20293;-75
2021/09/12 02:41:10;;;;;;;;;;;;;;;;;;5113947;28;19924;-75
2021/09/12 02:43:36;;;;;;;;;;;;;;;;;;5114392;28;19927;-75
2021/09/12 02:46:02;;;;;;;;;;;;;;;;;;5113852;28;20275;-75
2021/09/12 02:48:29;;;;;;;;;;;;;;;;;;5113642;28;19924;-75
2021/09/12 02:50:55;;;;;;;;;;;;;;;;;;5114244;28;19958;-75
2021/09/12 02:53:21;;;;;;;;;;;;;;;;;;5113487;28;19924;-75
2021/09/12 02:55:47;;;;;;;;;;;;;;;;;;5113861;28;19931;-75
2021/09/12 02:58:14;;;;;;;;;;;;;;;;;;5113476;28;19924;-76
2021/09/12 03:00:40;;;;;;;;;;;;;;;;;;5113743;28;19931;-75
2021/09/12 03:03:06;;;;;;;;;;;;;;;;;;5113707;28;19924;-75
2021/09/12 03:05:33;;;;;;;;;;;;;;;;;;5113635;28;19973;-75
2021/09/12 03:07:59;;;;;;;;;;;;;;;;;;5113717;28;19923;-76
2021/09/12 03:10:25;;;;;;;;;;;;;;;;;;5113273;28;20309;-75
2021/09/12 03:12:52;;;;;;;;;;;;;;;;;;5113447;28;19924;-75
2021/09/12 03:15:18;;;;;;;;;;;;;;;;;;5113565;28;19931;-75
2021/09/12 03:17:44;;;;;;;;;;;;;;;;;;5113383;28;20297;-75
2021/09/12 03:20:10;;;;;;;;;;;;;;;;;;5113097;28;19924;-76
2021/09/12 03:22:37;;;;;;;;;;;;;;;;;;5113680;28;19946;-76
2021/09/12 03:25:03;;;;;;;;;;;;;;;;;;5113114;28;19924;-75
2021/09/12 03:27:29;;;;;;;;;;;;;;;;;;5112953;28;19924;-75
2021/09/12 03:29:56;;;;;;;;;;;;;;;;;;5113496;28;19934;-75
2021/09/12 03:32:22;;;;;;;;;;;;;;;;;;5112930;28;20377;-75
2021/09/12 03:34:48;;;;;;;;;;;;;;;;;;5113555;28;19924;-75
2021/09/12 03:37:15;;;;;;;;;;;;;;;;;;5113185;28;19927;-75
2021/09/12 03:39:41;;;;;;;;;;;;;;;;;;5112856;28;20369;-76
2021/09/12 03:42:07;;;;;;;;;;;;;;;;;;5113089;28;19923;-76
2021/09/12 03:44:33;;;;;;;;;;;;;;;;;;5113344;28;19924;-76
2021/09/12 03:47:00;;;;;;;;;;;;;;;;;;5113040;28;20297;-76
2021/09/12 03:49:26;;;;;;;;;;;;;;;;;;5112761;28;19927;-76
2021/09/12 03:51:52;;;;;;;;;;;;;;;;;;5113162;28;19923;-75
2021/09/12 03:54:19;;;;;;;;;;;;;;;;;;5112549;28;20321;-76
2021/09/12 03:56:45;;;;;;;;;;;;;;;;;;5112899;28;19924;-75
2021/09/12 03:59:11;;;;;;;;;;;;;;;;;;5112903;28;19923;-76
2021/09/12 04:01:38;;;;;;;;;;;;;;;;;;5112850;28;20356;-76
2021/09/12 04:04:04;;;;;;;;;;;;;;;;;;5112740;28;19924;-76
2021/09/12 04:06:30;;;;;;;;;;;;;;;;;;5112917;28;19924;-75
2021/09/12 04:08:56;;;;;;;;;;;;;;;;;;5112799;28;20389;-75
2021/09/12 04:11:23;;;;;;;;;;;;;;;;;;5116264;28;19924;-76
2021/09/12 04:13:49;;;;;;;;;;;;;;;;;;5117001;28;19924;-76
2021/09/12 04:16:15;;;;;;;;;;;;;;;;;;5117048;28;19924;-76
2021/09/12 04:18:42;;;;;;;;;;;;;;;;;;5116869;28;19924;-75
2021/09/12 04:21:08;;;;;;;;;;;;;;;;;;5117066;28;19931;-75
2021/09/12 04:23:34;;;;;;;;;;;;;;;;;;5117053;28;19924;-75
2021/09/12 04:26:01;;;;;;;;;;;;;;;;;;5116465;28;19938;-76
2021/09/12 04:28:27;;;;;;;;;;;;;;;;;;5116768;28;19928;-76
2021/09/12 04:30:53;;;;;;;;;;;;;;;;;;5116685;28;19924;-75
2021/09/12 04:33:19;;;;;;;;;;;;;;;;;;5116510;28;19931;-76
2021/09/12 04:35:46;;;;;;;;;;;;;;;;;;5116920;28;19946;-76
2021/09/12 04:38:12;;;;;;;;;;;;;;;;;;5116214;28;19931;-75
2021/09/12 04:40:38;;;;;;;;;;;;;;;;;;5116822;28;19923;-76
2021/09/12 04:43:05;;;;;;;;;;;;;;;;;;5116744;28;20303;-76
2021/09/12 04:45:31;;;;;;;;;;;;;;;;;;5116045;28;19931;-76
2021/09/12 04:47:57;;;;;;;;;;;;;;;;;;5116645;28;19927;-76
2021/09/12 04:50:23;;;;;;;;;;;;;;;;;;5116294;28;19924;-76
2021/09/12 04:52:50;;;;;;;;;;;;;;;;;;5116182;28;19924;-76
2021/09/12 04:55:16;;;;;;;;;;;;;;;;;;5116220;28;19924;-76
2021/09/12 04:57:44;;;;;;;;;;;;;;;;;;5116130;28;20302;-76
2021/09/12 05:00:10;;;;;;;;;;;;;;;;;;5115883;28;19924;-76
2021/09/12 05:02:37;;;;;;;;;;;;;;;;;;5116399;28;19934;-76
2021/09/12 05:05:03;;;;;;;;;;;;;;;;;;5116333;28;20022;-76
2021/09/12 05:07:29;;;;;;;;;;;;;;;;;;5115652;28;20294;-75
2021/09/12 05:09:56;;;;;;;;;;;;;;;;;;5115810;28;19931;-76
2021/09/12 05:12:22;;;;;;;;;;;;;;;;;;5115862;28;19924;-75
2021/09/12 05:14:48;;;;;;;;;;;;;;;;;;5116102;28;19927;-76
2021/09/12 05:17:14;;;;;;;;;;;;;;;;;;5115454;28;20285;-76
2021/09/12 05:19:41;;;;;;;;;;;;;;;;;;5115752;28;19932;-76
2021/09/12 05:22:07;;;;;;;;;;;;;;;;;;5115794;28;19924;-75
2021/09/12 05:24:33;;;;;;;;;;;;;;;;;;5115547;28;20018;-75
2021/09/12 05:27:00;;;;;;;;;;;;;;;;;;5115578;28;19923;-75
2021/09/12 05:29:26;;;;;;;;;;;;;;;;;;5115631;28;19924;-75
2021/09/12 05:31:52;;;;;;;;;;;;;;;;;;5115572;28;20400;-75
2021/09/12 05:34:19;;;;;;;;;;;;;;;;;;5114941;28;19928;-75
2021/09/12 05:36:45;;;;;;;;;;;;;;;;;;5115406;28;19930;-75
2021/09/12 05:39:11;;;;;;;;;;;;;;;;;;5115469;28;19930;-75
2021/09/12 05:41:37;;;;;;;;;;;;;;;;;;5115327;28;20377;-75
2021/09/12 05:44:04;;;;;;;;;;;;;;;;;;5115186;28;19923;-75
2021/09/12 05:46:30;;;;;;;;;;;;;;;;;;5115233;28;19924;-75
2021/09/12 05:48:56;;;;;;;;;;;;;;;;;;5115191;28;20374;-75
2021/09/12 05:51:23;;;;;;;;;;;;;;;;;;5115214;28;19923;-75
2021/09/12 05:53:49;;;;;;;;;;;;;;;;;;5114973;28;20377;-75
2021/09/12 05:56:15;;;;;;;;;;;;;;;;;;5115081;28;19930;-75
2021/09/12 05:58:42;;;;;;;;;;;;;;;;;;5115231;28;19924;-75
2021/09/12 06:01:08;;;;;;;;;;;;;;;;;;5114946;28;20278;-75
2021/09/12 06:03:34;;;;;;;;;;;;;;;;;;5114900;28;19924;-75
2021/09/12 06:06:00;;;;;;;;;;;;;;;;;;5115161;28;19923;-75
2021/09/12 06:08:27;;;;;;;;;;;;;;;;;;5114520;28;19924;-75
2021/09/12 06:10:53;;;;;;;;;;;;;;;;;;5114785;28;19924;-75
2021/09/12 06:13:19;;;;;;;;;;;;;;;;;;5114646;28;19927;-75
2021/09/12 06:15:46;;;;;;;;;;;;;;;;;;5114659;28;20388;-75
2021/09/12 06:18:12;;;;;;;;;;;;;;;;;;5114370;28;19930;-75
2021/09/12 06:20:38;;;;;;;;;;;;;;;;;;5114736;28;19931;-75
2021/09/12 06:23:05;;;;;;;;;;;;;;;;;;5114498;28;20393;-75
2021/09/12 06:25:31;;;;;;;;;;;;;;;;;;5113987;28;20002;-75
2021/09/12 06:27:57;;;;;;;;;;;;;;;;;;5114705;28;19923;-75
2021/09/12 06:30:23;;;;;;;;;;;;;;;;;;5114119;28;19924;-76
2021/09/12 06:32:50;;;;;;;;;;;;;;;;;;5113539;28;19934;-75
2021/09/12 06:35:16;;;;;;;;;;;;;;;;;;5114267;28;19923;-75
2021/09/12 06:37:42;;;;;;;;;;;;;;;;;;5114581;28;19973;-75
2021/09/12 06:40:09;;;;;;;;;;;;;;;;;;5114087;28;19923;-75
2021/09/12 06:42:35;;;;;;;;;;;;;;;;;;5114456;28;19924;-75
2021/09/12 06:45:01;;;;;;;;;;;;;;;;;;5113989;28;20381;-75
2021/09/12 06:47:28;;;;;;;;;;;;;;;;;;5113672;28;19930;-75
2021/09/12 06:49:54;;;;;;;;;;;;;;;;;;5114285;28;19931;-76
2021/09/12 06:52:20;;;;;;;;;;;;;;;;;;5113980;28;20298;-78
2021/09/12 06:54:47;;;;;;;;;;;;;;;;;;5113726;28;19923;-75
2021/09/12 06:57:13;;;;;;;;;;;;;;;;;;5113890;28;19924;-76
2021/09/12 06:59:39;;;;;;;;;;;;;;;;;;5113618;28;19924;-75
2021/09/12 07:02:05;;;;;;;;;;;;;;;;;;5113677;28;19924;-75
2021/09/12 07:04:32;;;;;;;;;;;;;;;;;;5113717;28;19923;-75
2021/09/12 07:06:58;;;;;;;;;;;;;;;;;;5113559;28;19923;-75
2021/09/12 07:09:24;;;;;;;;;;;;;;;;;;5113706;28;19930;-76
2021/09/12 07:11:51;;;;;;;;;;;;;;;;;;5113809;28;19928;-75
2021/09/12 07:14:17;;;;;;;;;;;;;;;;;;5113277;28;19924;-76
2021/09/12 07:16:43;;;;;;;;;;;;;;;;;;5113806;28;19924;-75
2021/09/12 07:19:09;;;;;;;;;;;;;;;;;;5113100;28;20302;-74
2021/09/12 07:21:36;;;;;;;;;;;;;;;;;;5113428;28;19930;-74
2021/09/12 07:24:02;;;;;;;;;;;;;;;;;;5113566;28;19930;-74
2021/09/12 07:26:29;;;;;;;;;;;;;;;;;;5112961;28;19937;-75
2021/09/12 07:28:55;;;;;;;;;;;;;;;;;;5113297;28;19931;-75
2021/09/12 07:31:21;;;;;;;;;;;;;;;;;;5113304;28;19935;-75
2021/09/12 07:33:47;;;;;;;;;;;;;;;;;;5112921;28;20293;-75
2021/09/12 07:36:14;;;;;;;;;;;;;;;;;;5112881;28;19923;-75
2021/09/12 07:38:40;;;;;;;;;;;;;;;;;;5113745;28;20029;-75
2021/09/12 07:41:06;;;;;;;;;;;;;;;;;;5113123;28;19924;-75
2021/09/12 07:43:33;;;;;;;;;;;;;;;;;;5112598;28;20385;-75
2021/09/12 07:45:59;;;;;;;;;;;;;;;;;;5112286;28;19931;-75
2021/09/12 07:48:25;;;;;;;;;;;;;;;;;;5113090;28;19924;-76
2021/09/12 07:50:52;;;;;;;;;;;;;;;;;;5112965;28;20412;-76
2021/09/12 07:53:18;;;;;;;;;;;;;;;;;;5112545;28;19931;-76
2021/09/12 07:55:44;;;;;;;;;;;;;;;;;;5113254;28;19923;-75
2021/09/12 07:58:10;;;;;;;;;;;;;;;;;;5112564;28;20370;-76
2021/09/12 08:00:37;;;;;;;;;;;;;;;;;;5112854;28;19935;-75
2021/09/12 08:03:03;;;;;;;;;;;;;;;;;;5113148;28;19966;-75
2021/09/12 08:05:30;;;;;;;;;;;;;;;;;;5112824;28;19927;-76
2021/09/12 08:07:56;;;;;;;;;;;;;;;;;;5112838;28;19924;-75
2021/09/12 08:10:22;;;;;;;;;;;;;;;;;;5112865;28;19924;-75
2021/09/12 08:12:49;;;;;;;;;;;;;;;;;;5113040;28;19966;-75
2021/09/12 08:15:15;;;;;;;;;;;;;;;;;;5112732;28;19924;-75
2021/09/12 08:17:41;;;;;;;;;;;;;;;;;;5112654;28;19935;-75
2021/09/12 08:20:08;;;;;;;;;;;;;;;;;;5112903;28;19924;-75
2021/09/12 08:22:34;;;;;;;;;;;;;;;;;;5112894;28;20022;-74
2021/09/12 08:25:00;;;;;;;;;;;;;;;;;;5112413;28;19931;-74
2021/09/12 08:27:26;;;;;;;;;;;;;;;;;;5112719;28;19930;-73
2021/09/12 08:29:53;;;;;;;;;;;;;;;;;;5112881;28;20293;-75
2021/09/12 08:32:19;;;;;;;;;;;;;;;;;;5112231;28;19924;-74
2021/09/12 08:34:45;;;;;;;;;;;;;;;;;;5112766;28;19931;-75
2021/09/12 08:37:12;;;;;;;;;;;;;;;;;;5112230;28;20308;-74
2021/09/12 08:39:38;;;;;;;;;;;;;;;;;;5112429;28;19924;-72
2021/09/12 08:42:04;;;;;;;;;;;;;;;;;;5112826;28;19931;-73
2021/09/12 08:44:31;;;;;;;;;;;;;;;;;;5112520;28;19924;-72
2021/09/12 08:46:57;;;;;;;;;;;;;;;;;;5112387;28;19924;-73
2021/09/12 08:49:23;;;;;;;;;;;;;;;;;;5112485;28;19924;-73
2021/09/12 08:51:49;;;;;;;;;;;;;;;;;;5112614;28;19930;-72
2021/09/12 08:54:16;;;;;;;;;;;;;;;;;;5112047;28;19924;-74
2021/09/12 08:56:42;;;;;;;;;;;;;;;;;;5114917;28;19928;-73
2021/09/12 08:59:08;;;;;;;;;;;;;;;;;;5116082;28;20396;-73
2021/09/12 09:01:35;;;;;;;;;;;;;;;;;;5116063;28;19924;-76
2021/09/12 09:04:01;;;;;;;;;;;;;;;;;;5116417;28;19923;-73
2021/09/12 09:06:28;;;;;;;;;;;;;;;;;;5115783;28;19924;-75
2021/09/12 09:08:54;;;;;;;;;;;;;;;;;;5116284;28;19923;-78
2021/09/12 09:11:20;;;;;;;;;;;;;;;;;;5115933;28;19945;-74
2021/09/12 09:13:47;;;;;;;;;;;;;;;;;;5115860;28;19924;-74
2021/09/12 09:16:13;;;;;;;;;;;;;;;;;;5115544;28;19934;-78
2021/09/12 09:18:39;;;;;;;;;;;;;;;;;;5116188;28;19931;-75
2021/09/12 09:21:05;;;;;;;;;;;;;;;;;;5116195;28;20290;-70
2021/09/12 09:23:32;;;;;;;;;;;;;;;;;;5115326;28;19923;-72
2021/09/12 09:25:58;;;;;;;;;;;;;;;;;;5115568;28;19924;-72
2021/09/12 09:28:25;;;;;;;;;;;;;;;;;;5115626;28;20321;-72
2021/09/12 09:30:51;;;;;;;;;;;;;;;;;;5115538;28;19923;-71
2021/09/12 09:33:17;;;;;;;;;;;;;;;;;;5115202;28;19930;-71
2021/09/12 09:35:44;;;;;;;;;;;;;;;;;;5115657;28;19927;-71
2021/09/12 09:38:10;;;;;;;;;;;;;;;;;;5115284;28;19924;-72
2021/09/12 09:40:36;;;;;;;;;;;;;;;;;;5115363;28;19924;-72
2021/09/12 09:43:03;;;;;;;;;;;;;;;;;;5115313;28;20022;-72
2021/09/12 09:45:29;;;;;;;;;;;;;;;;;;5115255;28;19934;-72
2021/09/12 09:47:55;;;;;;;;;;;;;;;;;;5115243;28;20400;-72
2021/09/12 09:50:21;;;;;;;;;;;;;;;;;;5114858;28;19930;-72
2021/09/12 09:52:48;;;;;;;;;;;;;;;;;;5115439;28;19930;-72
2021/09/12 09:55:15;;;;;;;;;;;;;;;;;;5114614;28;20267;-72
2021/09/12 09:57:42;;;;;;;;;;;;;;;;;;5115313;28;19988;-72
2021/09/12 10:00:08;;;;;;;;;;;;;;;;;;5114971;28;19931;-72
2021/09/12 10:02:34;;;;;;;;;;;;;;;;;;5114933;28;19931;-72
2021/09/12 10:05:01;;;;;;;;;;;;;;;;;;5115014;28;19977;-72
2021/09/12 10:07:27;;;;;;;;;;;;;;;;;;5113754;28;19949;-72
2021/09/12 10:09:53;;;;;;;;;;;;;;;;;;5114851;28;19928;-72
2021/09/12 10:12:20;;;;;;;;;;;;;;;;;;5114674;28;19924;-72
2021/09/12 10:14:46;;;;;;;;;;;;;;;;;;5114725;28;19930;-72
2021/09/12 10:17:14;;;;;;;;;;;;;;;;;;5114736;28;19924;-72
2021/09/12 10:19:40;;;;;;;;;;;;;;;;;;5115219;28;19984;-71
2021/09/12 10:22:06;;;;;;;;;;;;;;;;;;5114591;28;19939;-72
2021/09/12 10:24:33;;;;;;;;;;;;;;;;;;5114197;28;19924;-72
2021/09/12 10:26:59;;;;;;;;;;;;;;;;;;5114801;28;19924;-72
2021/09/12 10:29:26;;;;;;;;;;;;;;;;;;5114081;28;19930;-71
2021/09/12 10:31:52;;;;;;;;;;;;;;;;;;5114379;28;19924;-71
2021/09/12 10:34:18;;;;;;;;;;;;;;;;;;5114326;28;19924;-72
2021/09/12 10:36:45;;;;;;;;;;;;;;;;;;5114185;28;20263;-72
2021/09/12 10:39:11;;;;;;;;;;;;;;;;;;5113929;28;19923;-72
2021/09/12 10:41:38;;;;;;;;;;;;;;;;;;5114473;28;19924;-71
2021/09/12 10:44:04;;;;;;;;;;;;;;;;;;5113940;28;20416;-72
2021/09/12 10:46:30;;;;;;;;;;;;;;;;;;5112120;28;19924;-72
2021/09/12 10:48:57;;;;;;;;;;;;;;;;;;5114131;28;19969;-71
2021/09/12 10:51:23;;;;;;;;;;;;;;;;;;5113910;28;19923;-72
2021/09/12 10:53:49;;;;;;;;;;;;;;;;;;5113900;28;20291;-72
2021/09/12 10:56:16;;;;;;;;;;;;;;;;;;5113474;28;19931;-71
2021/09/12 10:58:42;;;;;;;;;;;;;;;;;;5114299;28;19924;-72
2021/09/12 11:01:08;;;;;;;;;;;;;;;;;;5114105;28;20404;-73
2021/09/12 11:03:35;;;;;;;;;;;;;;;;;;5114412;28;19928;-72
2021/09/12 11:06:01;;;;;;;;;;;;;;;;;;5113652;28;19924;-73
2021/09/12 11:08:27;;;;;;;;;;;;;;;;;;5113786;28;19924;-72
2021/09/12 11:10:54;;;;;;;;;;;;;;;;;;5113893;28;19923;-71
2021/09/12 11:13:21;;;;;;;;;;;;;;;;;;5113400;28;19924;-74
2021/09/12 11:15:47;;;;;;;;;;;;;;;;;;5113408;28;19923;-71
2021/09/12 11:18:13;;;;;;;;;;;;;;;;;;5113389;28;19924;-71
2021/09/12 11:20:40;;;;;;;;;;;;;;;;;;5113438;28;20325;-71
2021/09/12 11:23:06;;;;;;;;;;;;;;;;;;5113242;28;19924;-72
2021/09/12 11:25:32;;;;;;;;;;;;;;;;;;5112943;28;19924;-71
2021/09/12 11:27:58;;;;;;;;;;;;;;;;;;5113574;28;19923;-73
2021/09/12 11:30:25;;;;;;;;;;;;;;;;;;5113380;28;20274;-72
2021/09/12 11:32:51;;;;;;;;;;;;;;;;;;5113210;28;19923;-72
2021/09/12 11:35:17;;;;;;;;;;;;;;;;;;5112924;28;19923;-73
2021/09/12 11:37:44;;;;;;;;;;;;;;;;;;5113185;28;19930;-72
2021/09/12 11:40:10;;;;;;;;;;;;;;;;;;5113251;28;19923;-71
2021/09/12 11:42:37;;;;;;;;;;;;;;;;;;5112951;28;20396;-72
2021/09/12 11:45:04;;;;;;;;;;;;;;;;;;5113355;28;19931;-71
2021/09/12 11:47:31;;;;;;;;;;;;;;;;;;5112578;28;20396;-70
2021/09/12 11:49:58;;;;;;;;;;;;;;;;;;5113206;28;19923;-72
2021/09/12 11:52:24;;;;;;;;;;;;;;;;;;5112656;28;20386;-69
2021/09/12 11:54:50;;;;;;;;;;;;;;;;;;5113036;28;19924;-70
2021/09/12 11:57:17;;;;;;;;;;;;;;;;;;5113047;28;19924;-69
2021/09/12 11:59:43;;;;;;;;;;;;;;;;;;5112939;28;20363;-69
2021/09/12 12:02:10;;;;;;;;;;;;;;;;;;5112570;28;19930;-70
2021/09/12 12:04:36;;;;;;;;;;;;;;;;;;5113073;28;19930;-72
2021/09/12 12:07:02;;;;;;;;;;;;;;;;;;5112790;28;20382;-73
2021/09/12 12:09:30;;;;;;;;;;;;;;;;;;5112561;28;19924;-71
2021/09/12 12:11:56;;;;;;;;;;;;;;;;;;5112679;28;19923;-71
2021/09/12 12:14:22;;;;;;;;;;;;;;;;;;5112688;28;19924;-70
2021/09/12 12:16:49;;;;;;;;;;;;;;;;;;5112910;28;19946;-73
2021/09/12 12:19:15;;;;;;;;;;;;;;;;;;5112393;28;19928;-73
2021/09/12 12:21:41;;;;;;;;;;;;;;;;;;5112876;28;19992;-73
2021/09/12 12:24:08;;;;;;;;;;;;;;;;;;5112494;28;19935;-72
2021/09/12 12:26:34;;;;;;;;;;;;;;;;;;5112545;28;19924;-72
2021/09/12 12:29:01;;;;;;;;;;;;;;;;;;5112799;28;20362;-72
2021/09/12 12:31:27;;;;;;;;;;;;;;;;;;5114236;28;20282;-71
2021/09/12 12:33:53;;;;;;;;;;;;;;;;;;5116632;28;19924;-71
2021/09/12 12:36:21;;;;;;;;;;;;;;;;;;5116534;28;19924;-71
2021/09/12 12:38:47;;;;;;;;;;;;;;;;;;5116512;28;19923;-70
2021/09/12 12:41:14;;;;;;;;;;;;;;;;;;5116363;28;20370;-71
2021/09/12 12:43:40;;;;;;;;;;;;;;;;;;5116517;28;19924;-72
2021/09/12 12:46:06;;;;;;;;;;;;;;;;;;5116700;28;19924;-71
2021/09/12 12:48:34;;;;;;;;;;;;;;;;;;5116142;28;20404;-68
2021/09/12 12:51:00;;;;;;;;;;;;;;;;;;5116563;28;19924;-73
2021/09/12 12:53:29;;;;;;;;;;;;;;;;;;5115901;28;20400;-69
2021/09/12 12:55:55;;;;;;;;;;;;;;;;;;5116014;28;19923;-68
2021/09/12 12:58:22;;;;;;;;;;;;;;;;;;5115957;28;20363;-71
2021/09/12 13:00:48;;;;;;;;;;;;;;;;;;5116138;28;19924;-70
2021/09/12 13:03:14;;;;;;;;;;;;;;;;;;5116112;28;19930;-72
2021/09/12 13:05:41;;;;;;;;;;;;;;;;;;5115964;28;20274;-72
2021/09/12 13:08:07;;;;;;;;;;;;;;;;;;5116022;28;19923;-73
2021/09/12 13:10:34;;;;;;;;;;;;;;;;;;5115740;28;19955;-74
2021/09/12 13:13:00;;;;;;;;;;;;;;;;;;5115885;28;19972;-74
2021/09/12 13:15:27;;;;;;;;;;;;;;;;;;5116090;28;19930;-72
2021/09/12 13:17:53;;;;;;;;;;;;;;;;;;5115896;28;19924;-77
2021/09/12 13:20:19;;;;;;;;;;;;;;;;;;5115754;28;19930;-74
2021/09/12 13:22:45;;;;;;;;;;;;;;;;;;5115959;28;19954;-75
2021/09/12 13:25:12;;;;;;;;;;;;;;;;;;5115265;28;19930;-73
2021/09/12 13:27:38;;;;;;;;;;;;;;;;;;5115839;28;19924;-73
2021/09/12 13:30:04;;;;;;;;;;;;;;;;;;5115928;28;19946;-72
2021/09/12 13:32:31;;;;;;;;;;;;;;;;;;5115238;28;19925;-72
2021/09/12 13:34:57;;;;;;;;;;;;;;;;;;5115428;28;19924;-71
2021/09/12 13:37:23;;;;;;;;;;;;;;;;;;5115520;28;20021;-72
2021/09/12 13:39:50;;;;;;;;;;;;;;;;;;5115343;28;19923;-74
2021/09/12 13:42:16;;;;;;;;;;;;;;;;;;5115254;28;19927;-75
2021/09/12 13:44:42;;;;;;;;;;;;;;;;;;5114394;28;20438;-72
2021/09/12 13:47:08;;;;;;;;;;;;;;;;;;5113359;28;19924;-72
2021/09/12 13:49:35;;;;;;;;;;;;;;;;;;5114614;28;19923;-72
2021/09/12 13:52:01;;;;;;;;;;;;;;;;;;5114844;28;19924;-73
2021/09/12 13:54:27;;;;;;;;;;;;;;;;;;5114560;28;19930;-72
2021/09/12 13:56:54;;;;;;;;;;;;;;;;;;5115373;28;19939;-72
2021/09/12 13:59:20;;;;;;;;;;;;;;;;;;5114784;28;20312;-72
2021/09/12 14:01:46;;;;;;;;;;;;;;;;;;5114948;28;20400;-73
2021/09/12 14:04:13;;;;;;;;;;;;;;;;;;5114898;28;19931;-72
2021/09/12 14:06:39;;;;;;;;;;;;;;;;;;5115214;28;20015;-72
2021/09/12 14:09:05;;;;;;;;;;;;;;;;;;5115190;28;19971;-72
2021/09/12 14:11:32;;;;;;;;;;;;;;;;;;5113903;28;20022;-72
2021/09/12 14:13:58;;;;;;;;;;;;;;;;;;5114203;28;19923;-72
2021/09/12 14:16:24;;;;;;;;;;;;;;;;;;5114375;28;20381;-72
2021/09/12 14:18:51;;;;;;;;;;;;;;;;;;5114997;28;19924;-72
2021/09/12 14:21:17;;;;;;;;;;;;;;;;;;5114737;28;20002;-72
2021/09/12 14:23:45;;;;;;;;;;;;;;;;;;5114551;28;19931;-72
2021/09/12 14:26:11;;;;;;;;;;;;;;;;;;5114025;28;19967;-72
2021/09/12 14:28:37;;;;;;;;;;;;;;;;;;5114791;28;19927;-72
2021/09/12 14:31:03;;;;;;;;;;;;;;;;;;5114395;28;19923;-72
2021/09/12 14:33:30;;;;;;;;;;;;;;;;;;5114233;28;19928;-72
2021/09/12 14:35:56;;;;;;;;;;;;;;;;;;5114214;28;20420;-71
2021/09/12 14:38:22;;;;;;;;;;;;;;;;;;5114333;28;19923;-71
2021/09/12 14:40:49;;;;;;;;;;;;;;;;;;5114137;28;20385;-71
2021/09/12 14:43:15;;;;;;;;;;;;;;;;;;5113817;28;19930;-71
2021/09/12 14:45:41;;;;;;;;;;;;;;;;;;5114420;28;19924;-71
2021/09/12 14:48:08;;;;;;;;;;;;;;;;;;5114068;28;19924;-71
2021/09/12 14:50:34;;;;;;;;;;;;;;;;;;5114060;28;19924;-71
2021/09/12 14:53:00;;;;;;;;;;;;;;;;;;5113938;28;19924;-71
2021/09/12 14:55:26;;;;;;;;;;;;;;;;;;5113182;28;19928;-71
2021/09/12 14:57:53;;;;;;;;;;;;;;;;;;5113829;28;19924;-71
2021/09/12 15:00:19;;;;;;;;;;;;;;;;;;5113884;28;19934;-71
2021/09/12 15:02:45;;;;;;;;;;;;;;;;;;5114124;28;20111;-71
2021/09/12 15:05:12;;;;;;;;;;;;;;;;;;5113694;28;19934;-72
2021/09/12 15:07:38;;;;;;;;;;;;;;;;;;5113715;28;19939;-72
2021/09/12 15:10:04;;;;;;;;;;;;;;;;;;5114217;28;19930;-71
2021/09/12 15:12:31;;;;;;;;;;;;;;;;;;5113421;28;20285;-71
2021/09/12 15:14:57;;;;;;;;;;;;;;;;;;5113886;28;19924;-71
2021/09/12 15:17:24;;;;;;;;;;;;;;;;;;5113439;28;19923;-72
2021/09/12 15:19:50;;;;;;;;;;;;;;;;;;5113380;28;19923;-71
2021/09/12 15:22:16;;;;;;;;;;;;;;;;;;5113570;28;19942;-71
2021/09/12 15:24:44;;;;;;;;;;;;;;;;;;5113539;28;20284;-71
2021/09/12 15:27:10;;;;;;;;;;;;;;;;;;5113396;28;19924;-71
2021/09/12 15:29:37;;;;;;;;;;;;;;;;;;5113258;28;20275;-71
2021/09/12 15:32:03;;;;;;;;;;;;;;;;;;5113225;28;19924;-72
2021/09/12 15:34:29;;;;;;;;;;;;;;;;;;5113021;28;19934;-71
2021/09/12 15:36:56;;;;;;;;;;;;;;;;;;5113451;28;19923;-71
2021/09/12 15:39:23;;;;;;;;;;;;;;;;;;5112851;28;19931;-71
2021/09/12 15:41:49;;;;;;;;;;;;;;;;;;5113315;28;20289;-71
2021/09/12 15:44:16;;;;;;;;;;;;;;;;;;5112810;28;19923;-72
2021/09/12 15:46:42;;;;;;;;;;;;;;;;;;5112925;28;19924;-71
2021/09/12 15:49:08;;;;;;;;;;;;;;;;;;5112991;28;20301;-71
2021/09/12 15:51:35;;;;;;;;;;;;;;;;;;5113198;28;19924;-71
2021/09/12 15:54:01;;;;;;;;;;;;;;;;;;5112941;28;20301;-71
2021/09/12 15:56:28;;;;;;;;;;;;;;;;;;5112668;28;19934;-71
2021/09/12 15:58:55;;;;;;;;;;;;;;;;;;5113138;28;19968;-71
2021/09/12 16:01:21;;;;;;;;;;;;;;;;;;5112535;28;20378;-71
2021/09/12 16:03:49;;;;;;;;;;;;;;;;;;5112905;28;19927;-72
2021/09/12 16:06:15;;;;;;;;;;;;;;;;;;5111652;28;19928;-71
2021/09/12 16:08:41;;;;;;;;;;;;;;;;;;5113131;28;19931;-71
2021/09/12 16:11:08;;;;;;;;;;;;;;;;;;5112771;28;20374;-72
2021/09/12 16:13:34;;;;;;;;;;;;;;;;;;5112529;28;19923;-71
2021/09/12 16:16:00;;;;;;;;;;;;;;;;;;5112933;28;19923;-72
2021/09/12 16:18:27;;;;;;;;;;;;;;;;;;5112485;28;20262;-72
2021/09/12 16:20:53;;;;;;;;;;;;;;;;;;5112603;28;19924;-71
2021/09/12 16:23:19;;;;;;;;;;;;;;;;;;5112780;28;19927;-71
2021/09/12 16:25:45;;;;;;;;;;;;;;;;;;5112360;28;20382;-72
2021/09/12 16:28:12;;;;;;;;;;;;;;;;;;5112423;28;19923;-72
2021/09/12 16:30:38;;;;;;;;;;;;;;;;;;5112925;28;19934;-72
2021/09/12 16:33:05;;;;;;;;;;;;;;;;;;5112518;28;19923;-71
2021/09/12 16:35:32;;;;;;;;;;;;;;;;;;5112283;28;19923;-72
2021/09/12 16:37:58;;;;;;;;;;;;;;;;;;5112783;28;20323;-72